Time;durP1;ratioP1;P1;durP2;ratioP2;P2;SDS_P1;SDS_P2;PMS_P1;PMS_P2;Temp;Humidity;BMP_temperature;BMP_pressure;BME280_temperature;BME280_humidity;BME280_pressure;Samples;Min_cycle;Max_cycle;Signal;HPM_P1;HPM_P2
2023/08/08 00:00:22;;;;;;;4.05;2.58;;;;;;;;;;5077306;28;20012;-56
2023/08/08 00:02:48;;;;;;;5.18;2.50;;;;;;;;;;5060087;28;20085;-56
2023/08/08 00:05:13;;;;;;;3.08;2.20;;;;;;;;;;5077263;28;20032;-56
2023/08/08 00:07:38;;;;;;;2.85;2.25;;;;;;;;;;5077273;28;20093;-56
2023/08/08 00:10:04;;;;;;;3.22;2.20;;;;;;;;;;5077519;28;20033;-56
2023/08/08 00:12:29;;;;;;;2.33;2.13;;;;;;;;;;5077137;28;20039;-56
2023/08/08 00:14:55;;;;;;;4.38;2.20;;;;;;;;;;5077046;28;20124;-56
2023/08/08 00:17:20;;;;;;;2.55;1.63;;;;;;;;;;5077004;28;20447;-56
2023/08/08 00:19:46;;;;;;;4.35;1.73;;;;;;;;;;5076977;28;20031;-56
2023/08/08 00:22:11;;;;;;;3.65;1.58;;;;;;;;;;5076636;28;20070;-56
2023/08/08 00:24:36;;;;;;;2.22;1.40;;;;;;;;;;5042103;28;20040;-56
2023/08/08 00:27:02;;;;;;;2.65;1.20;;;;;;;;;;5076392;28;20500;-56
2023/08/08 00:29:27;;;;;;;3.47;1.20;;;;;;;;;;5076854;28;20032;-56
2023/08/08 00:31:52;;;;;;;1.60;1.20;;;;;;;;;;5076714;28;20047;-56
2023/08/08 00:34:18;;;;;;;3.75;1.00;;;;;;;;;;5076414;28;20458;-56
2023/08/08 00:36:43;;;;;;;2.45;1.20;;;;;;;;;;5076652;28;20060;-56
2023/08/08 00:39:10;;;;;;;2.80;1.00;;;;;;;;;;5058403;28;20051;-56
2023/08/08 00:41:35;;;;;;;1.00;0.90;;;;;;;;;;5058360;28;20070;-56
2023/08/08 00:44:02;;;;;;;1.58;0.90;;;;;;;;;;5077002;28;20100;-56
2023/08/08 00:46:27;;;;;;;1.20;0.82;;;;;;;;;;5076361;28;20067;-56
2023/08/08 00:48:53;;;;;;;1.52;0.90;;;;;;;;;;5058512;28;20095;-56
2023/08/08 00:51:19;;;;;;;1.63;0.95;;;;;;;;;;5058173;28;20166;-56
2023/08/08 00:53:45;;;;;;;1.33;0.80;;;;;;;;;;5076132;28;20024;-56
2023/08/08 00:56:13;;;;;;;2.15;0.93;;;;;;;;;;5058738;28;20466;-56
2023/08/08 00:58:38;;;;;;;1.33;0.98;;;;;;;;;;5058138;28;20024;-56
2023/08/08 01:01:04;;;;;;;2.42;0.85;;;;;;;;;;5058009;28;20041;-56
2023/08/08 01:03:30;;;;;;;2.30;1.02;;;;;;;;;;5057937;28;20064;-56
2023/08/08 01:06:01;;;;;;;2.17;0.90;;;;;;;;;;5076097;28;20048;-56
2023/08/08 01:08:30;;;;;;;1.35;0.88;;;;;;;;;;5074596;28;20455;-56
2023/08/08 01:10:57;;;;;;;4.57;1.05;;;;;;;;;;5075856;28;20028;-56
2023/08/08 01:13:24;;;;;;;2.35;1.50;;;;;;;;;;5075899;28;20470;-58
2023/08/08 01:15:50;;;;;;;0.77;0.60;;;;;;;;;;5075874;28;20024;-58
2023/08/08 01:18:16;;;;;;;1.25;0.90;;;;;;;;;;5057750;28;20429;-58
2023/08/08 01:20:42;;;;;;;0.88;0.73;;;;;;;;;;5075517;28;20047;-58
2023/08/08 01:23:17;;;;;;;2.17;0.85;;;;;;;;;;5075874;28;20451;-58
2023/08/08 01:25:43;;;;;;;1.13;0.90;;;;;;;;;;5075473;28;20078;-58
2023/08/08 01:28:09;;;;;;;1.25;0.80;;;;;;;;;;5075317;28;20445;-58
2023/08/08 01:30:35;;;;;;;2.42;0.80;;;;;;;;;;5075590;28;20028;-58
2023/08/08 01:33:00;;;;;;;1.88;0.82;;;;;;;;;;5075387;28;20424;-57
2023/08/08 01:35:30;;;;;;;1.45;0.80;;;;;;;;;;5057376;28;20025;-56
2023/08/08 01:38:00;;;;;;;3.45;0.80;;;;;;;;;;5075176;28;20490;-56
2023/08/08 01:40:26;;;;;;;1.10;0.70;;;;;;;;;;5057325;28;20029;-57
2023/08/08 01:42:51;;;;;;;0.88;0.82;;;;;;;;;;5075251;28;20763;-57
2023/08/08 01:45:17;;;;;;;1.58;0.80;;;;;;;;;;5075245;28;20039;-56
2023/08/08 01:47:43;;;;;;;1.60;1.02;;;;;;;;;;5075127;28;20029;-56
2023/08/08 01:50:08;;;;;;;1.25;1.02;;;;;;;;;;5075494;28;20037;-56
2023/08/08 01:52:34;;;;;;;1.25;1.15;;;;;;;;;;5056540;28;20078;-56
2023/08/08 01:55:01;;;;;;;1.40;1.20;;;;;;;;;;5057183;28;20021;-56
2023/08/08 01:57:27;;;;;;;1.83;1.38;;;;;;;;;;5075476;28;20032;-56
2023/08/08 01:59:52;;;;;;;1.90;1.42;;;;;;;;;;5074848;28;20123;-56
2023/08/08 02:02:18;;;;;;;5.82;1.50;;;;;;;;;;5056864;28;20115;-55
2023/08/08 02:04:43;;;;;;;3.38;1.55;;;;;;;;;;5056921;28;20443;-55
2023/08/08 02:07:08;;;;;;;3.45;1.63;;;;;;;;;;5056724;28;20032;-55
2023/08/08 02:09:34;;;;;;;3.63;1.55;;;;;;;;;;5056651;28;20028;-56
2023/08/08 02:11:59;;;;;;;3.25;1.58;;;;;;;;;;5074745;28;20035;-56
2023/08/08 02:14:24;;;;;;;4.60;1.60;;;;;;;;;;5057080;28;20023;-56
2023/08/08 02:16:50;;;;;;;5.70;1.88;;;;;;;;;;5074751;28;20032;-55
2023/08/08 02:19:15;;;;;;;4.30;2.10;;;;;;;;;;5074435;28;20111;-56
2023/08/08 02:21:40;;;;;;;5.72;1.88;;;;;;;;;;5074383;28;20024;-56
2023/08/08 02:24:06;;;;;;;5.47;1.70;;;;;;;;;;5074884;28;20029;-56
2023/08/08 02:26:31;;;;;;;5.25;2.00;;;;;;;;;;5074727;28;20117;-56
2023/08/08 02:28:56;;;;;;;6.97;1.95;;;;;;;;;;5074420;28;20037;-56
2023/08/08 02:31:22;;;;;;;4.47;1.70;;;;;;;;;;5074473;28;20107;-55
2023/08/08 02:33:48;;;;;;;4.50;2.17;;;;;;;;;;5056241;28;20115;-55
2023/08/08 02:36:14;;;;;;;3.15;1.92;;;;;;;;;;5074650;28;20028;-55
2023/08/08 02:38:39;;;;;;;4.88;2.22;;;;;;;;;;5056174;28;20078;-56
2023/08/08 02:41:04;;;;;;;4.15;2.17;;;;;;;;;;5074092;28;20355;-56
2023/08/08 02:43:30;;;;;;;6.00;1.70;;;;;;;;;;5056078;28;20039;-56
2023/08/08 02:45:56;;;;;;;2.60;1.75;;;;;;;;;;5056022;28;20048;-56
2023/08/08 02:48:21;;;;;;;3.55;1.80;;;;;;;;;;5074499;28;20103;-56
2023/08/08 02:50:46;;;;;;;1.52;1.40;;;;;;;;;;5073850;28;20035;-56
2023/08/08 02:53:12;;;;;;;1.60;1.33;;;;;;;;;;5055972;28;20548;-56
2023/08/08 02:55:42;;;;;;;2.70;1.20;;;;;;;;;;5055934;28;20031;-57
2023/08/08 02:58:09;;;;;;;2.83;1.20;;;;;;;;;;5074611;28;20021;-57
2023/08/08 03:00:34;;;;;;;0.98;0.80;;;;;;;;;;5074296;28;20081;-57
2023/08/08 03:03:00;;;;;;;2.45;1.08;;;;;;;;;;5055217;28;20543;-57
2023/08/08 03:05:26;;;;;;;1.67;0.80;;;;;;;;;;5055543;28;20024;-57
2023/08/08 03:07:53;;;;;;;1.83;0.95;;;;;;;;;;5055754;28;20032;-57
2023/08/08 03:10:18;;;;;;;1.30;0.90;;;;;;;;;;5074144;28;20021;-57
2023/08/08 03:12:44;;;;;;;0.98;0.90;;;;;;;;;;5055711;28;20027;-56
2023/08/08 03:15:41;;;;;;;1.60;1.13;;;;;;;;;;5085820;23;20446;-60
2023/08/08 03:18:07;;;;;;;2.88;0.70;;;;;;;;;;5014395;28;20041;-56
2023/08/08 03:20:54;;;;;;;0.95;0.80;;;;;;;;;;5045184;23;20041;-56
2023/08/08 03:23:19;;;;;;;0.93;0.85;;;;;;;;;;5016593;23;20136;-60
2023/08/08 03:26:01;;;;;;;2.50;1.10;;;;;;;;;;5057769;23;20049;-60
2023/08/08 03:28:26;;;;;;;1.98;0.88;;;;;;;;;;5065160;23;20060;-60
2023/08/08 03:30:54;;;;;;;1.75;0.95;;;;;;;;;;5035426;28;20036;-61
2023/08/08 03:33:20;;;;;;;2.60;1.00;;;;;;;;;;5035717;28;20547;-60
2023/08/08 03:35:46;;;;;;;1.40;1.00;;;;;;;;;;5035687;28;20108;-61
2023/08/08 03:38:11;;;;;;;0.93;0.90;;;;;;;;;;5035421;28;20118;-61
2023/08/08 03:40:37;;;;;;;1.15;0.80;;;;;;;;;;5035463;28;20029;-61
2023/08/08 03:43:02;;;;;;;1.02;0.93;;;;;;;;;;5036177;28;20047;-61
2023/08/08 03:45:29;;;;;;;1.35;1.08;;;;;;;;;;5035880;28;20036;-61
2023/08/08 03:47:54;;;;;;;2.63;1.02;;;;;;;;;;5053283;28;20387;-61
2023/08/08 03:50:20;;;;;;;1.90;1.20;;;;;;;;;;5052937;28;20035;-61
2023/08/08 03:52:45;;;;;;;1.77;0.85;;;;;;;;;;5035400;28;20033;-61
2023/08/08 03:55:11;;;;;;;0.77;0.77;;;;;;;;;;5035900;28;20028;-61
2023/08/08 03:57:37;;;;;;;1.33;1.10;;;;;;;;;;5035909;28;20028;-61
2023/08/08 04:00:04;;;;;;;4.38;1.13;;;;;;;;;;5034922;28;20025;-61
2023/08/08 04:02:38;;;;;;;3.05;1.10;;;;;;;;;;5066727;23;20328;-57
2023/08/08 04:05:04;;;;;;;2.90;1.02;;;;;;;;;;5043932;23;20049;-57
2023/08/08 04:07:30;;;;;;;1.20;1.10;;;;;;;;;;5033006;28;20026;-55
2023/08/08 04:09:55;;;;;;;1.38;1.10;;;;;;;;;;5033292;28;20476;-59
2023/08/08 04:12:20;;;;;;;1.15;1.05;;;;;;;;;;5033139;28;20045;-61
2023/08/08 04:14:46;;;;;;;1.63;1.25;;;;;;;;;;5033644;28;20120;-61
2023/08/08 04:17:11;;;;;;;2.97;1.40;;;;;;;;;;5036998;28;20021;-61
2023/08/08 04:19:37;;;;;;;5.63;2.00;;;;;;;;;;5036869;28;20037;-60
2023/08/08 04:22:02;;;;;;;2.65;1.25;;;;;;;;;;5035127;28;20045;-63
2023/08/08 04:24:28;;;;;;;1.42;1.00;;;;;;;;;;5023602;28;20036;-60
2023/08/08 04:26:53;;;;;;;1.70;1.15;;;;;;;;;;5023765;28;20042;-60
2023/08/08 04:29:18;;;;;;;5.78;1.40;;;;;;;;;;5016365;28;20034;-60
2023/08/08 04:31:43;;;;;;;1.33;1.15;;;;;;;;;;5017400;28;20433;-60
2023/08/08 04:34:09;;;;;;;1.35;1.17;;;;;;;;;;5015649;28;20030;-60
2023/08/08 04:36:34;;;;;;;1.65;1.23;;;;;;;;;;5017139;28;20057;-60
2023/08/08 04:39:00;;;;;;;3.15;1.30;;;;;;;;;;5016967;28;20396;-60
2023/08/08 04:41:25;;;;;;;1.05;1.05;;;;;;;;;;5016548;28;20069;-60
2023/08/08 04:43:50;;;;;;;2.60;1.42;;;;;;;;;;5016812;28;20033;-60
2023/08/08 04:46:15;;;;;;;2.33;1.40;;;;;;;;;;5016899;28;20030;-60
2023/08/08 04:48:41;;;;;;;1.60;1.45;;;;;;;;;;5017107;28;20421;-60
2023/08/08 04:51:06;;;;;;;1.80;1.10;;;;;;;;;;5016466;28;20514;-61
2023/08/08 04:53:32;;;;;;;1.55;1.05;;;;;;;;;;5016715;28;20014;-60
2023/08/08 04:55:57;;;;;;;1.30;1.13;;;;;;;;;;5016278;28;20472;-60
2023/08/08 04:58:23;;;;;;;4.05;1.10;;;;;;;;;;5016628;28;20476;-60
2023/08/08 05:00:50;;;;;;;2.83;1.25;;;;;;;;;;5016898;28;20037;-60
2023/08/08 05:03:15;;;;;;;1.10;0.98;;;;;;;;;;5016606;28;20464;-60
2023/08/08 05:05:41;;;;;;;5.72;1.10;;;;;;;;;;5028831;28;20088;-60
2023/08/08 05:08:06;;;;;;;1.98;1.27;;;;;;;;;;5017639;28;20029;-60
2023/08/08 05:10:31;;;;;;;2.85;1.20;;;;;;;;;;5035850;28;20080;-60
2023/08/08 05:12:57;;;;;;;3.88;1.17;;;;;;;;;;5035407;28;20032;-60
2023/08/08 05:15:22;;;;;;;2.65;1.25;;;;;;;;;;5034856;28;20021;-60
2023/08/08 05:17:48;;;;;;;0.90;0.90;;;;;;;;;;5033633;28;20107;-60
2023/08/08 05:20:13;;;;;;;2.15;1.20;;;;;;;;;;5033650;28;20180;-60
2023/08/08 05:22:38;;;;;;;1.08;1.08;;;;;;;;;;5033957;28;20075;-60
2023/08/08 05:25:04;;;;;;;1.92;1.35;;;;;;;;;;5034234;28;20041;-60
2023/08/08 05:27:29;;;;;;;1.45;1.35;;;;;;;;;;5033099;28;20435;-61
2023/08/08 05:29:55;;;;;;;1.60;1.50;;;;;;;;;;5033826;28;20072;-60
2023/08/08 05:32:20;;;;;;;1.30;0.57;;;;;;;;;;5035397;28;20135;-60
2023/08/08 05:34:45;;;;;;;2.42;1.30;;;;;;;;;;5035372;28;20486;-60
2023/08/08 05:37:11;;;;;;;3.70;1.30;;;;;;;;;;5035360;28;20364;-61
2023/08/08 05:39:36;;;;;;;2.78;1.05;;;;;;;;;;5035322;28;20029;-63
2023/08/08 05:42:02;;;;;;;1.10;1.02;;;;;;;;;;5035338;28;20124;-60
2023/08/08 05:44:27;;;;;;;2.45;1.20;;;;;;;;;;5035617;28;20021;-60
2023/08/08 05:46:52;;;;;;;0.93;0.90;;;;;;;;;;5035360;28;20075;-61
2023/08/08 05:49:17;;;;;;;2.80;1.17;;;;;;;;;;5035384;28;20113;-61
2023/08/08 05:51:43;;;;;;;3.55;1.08;;;;;;;;;;5016883;28;20025;-61
2023/08/08 05:54:09;;;;;;;1.70;1.23;;;;;;;;;;5034092;28;20104;-61
2023/08/08 05:56:36;;;;;;;2.53;1.00;;;;;;;;;;5034088;28;20418;-61
2023/08/08 05:59:01;;;;;;;1.77;1.20;;;;;;;;;;5033148;28;20013;-61
2023/08/08 06:04:11;;;;;;;1.10;1.00;;;;;;;;;;5032823;28;20132;-63
2023/08/08 06:06:36;;;;;;;2.75;1.00;;;;;;;;;;5034577;28;20112;-63
2023/08/08 06:09:01;;;;;;;1.42;0.95;;;;;;;;;;5035043;28;20040;-63
2023/08/08 06:11:27;;;;;;;1.92;1.10;;;;;;;;;;5034769;28;20573;-63
2023/08/08 06:13:52;;;;;;;2.20;1.10;;;;;;;;;;5034757;28;20045;-63
2023/08/08 06:16:18;;;;;;;1.55;1.20;;;;;;;;;;5033852;28;20044;-63
2023/08/08 06:18:43;;;;;;;1.08;1.02;;;;;;;;;;5034954;28;20025;-63
2023/08/08 06:21:09;;;;;;;2.80;0.95;;;;;;;;;;5033400;28;20531;-63
2023/08/08 06:23:34;;;;;;;3.72;0.90;;;;;;;;;;5033711;28;20056;-63
2023/08/08 06:26:00;;;;;;;2.00;1.00;;;;;;;;;;5034506;28;20039;-63
2023/08/08 06:28:25;;;;;;;1.85;1.75;;;;;;;;;;5033294;28;20040;-63
2023/08/08 06:30:50;;;;;;;2.35;1.80;;;;;;;;;;5033129;28;20037;-63
2023/08/08 06:33:15;;;;;;;3.72;1.70;;;;;;;;;;5034416;28;20037;-63
2023/08/08 06:35:41;;;;;;;1.73;1.30;;;;;;;;;;5033478;28;20034;-63
2023/08/08 06:38:08;;;;;;;1.10;1.10;;;;;;;;;;5034084;28;20037;-63
2023/08/08 06:40:34;;;;;;;3.20;1.33;;;;;;;;;;5033669;28;20044;-63
2023/08/08 06:42:59;;;;;;;3.28;1.42;;;;;;;;;;5034050;28;20029;-63
2023/08/08 06:45:24;;;;;;;3.53;1.58;;;;;;;;;;5033315;28;20501;-63
2023/08/08 06:47:50;;;;;;;1.67;1.58;;;;;;;;;;5032175;28;20040;-63
2023/08/08 06:50:15;;;;;;;4.70;2.17;;;;;;;;;;5034003;28;20029;-63
2023/08/08 06:52:40;;;;;;;3.85;1.90;;;;;;;;;;5034083;28;20455;-62
2023/08/08 06:55:06;;;;;;;2.38;1.70;;;;;;;;;;5032997;28;20021;-63
2023/08/08 06:57:32;;;;;;;2.22;2.03;;;;;;;;;;5032231;28;20489;-62
2023/08/08 06:59:57;;;;;;;1.98;1.70;;;;;;;;;;5032091;28;20029;-63
2023/08/08 07:02:23;;;;;;;1.30;1.20;;;;;;;;;;5036650;28;20433;-63
2023/08/08 07:04:48;;;;;;;2.47;2.00;;;;;;;;;;5051724;28;20029;-63
2023/08/08 07:07:13;;;;;;;2.42;1.77;;;;;;;;;;5051635;28;20037;-63
2023/08/08 07:09:39;;;;;;;2.28;1.48;;;;;;;;;;5051621;28;20037;-63
2023/08/08 07:12:04;;;;;;;5.03;1.45;;;;;;;;;;5051665;28;20386;-63
2023/08/08 07:14:29;;;;;;;2.03;1.50;;;;;;;;;;5033922;28;20021;-63
2023/08/08 07:16:55;;;;;;;4.30;2.10;;;;;;;;;;5052217;28;20033;-63
2023/08/08 07:19:21;;;;;;;4.10;2.17;;;;;;;;;;5052021;28;20107;-63
2023/08/08 07:21:46;;;;;;;2.25;1.67;;;;;;;;;;5053222;28;20032;-63
2023/08/08 07:24:12;;;;;;;3.20;1.58;;;;;;;;;;5053604;28;20465;-63
2023/08/08 07:26:37;;;;;;;2.40;1.63;;;;;;;;;;5053516;28;20356;-63
2023/08/08 07:29:04;;;;;;;3.15;1.85;;;;;;;;;;5035658;28;20024;-63
2023/08/08 07:31:29;;;;;;;1.67;1.58;;;;;;;;;;5053552;28;20070;-63
2023/08/08 07:33:55;;;;;;;3.55;1.83;;;;;;;;;;5053467;28;20453;-63
2023/08/08 07:36:20;;;;;;;1.85;1.52;;;;;;;;;;5054042;28;20092;-63
2023/08/08 07:38:45;;;;;;;1.58;1.42;;;;;;;;;;5053415;28;20363;-62
2023/08/08 07:41:10;;;;;;;3.35;2.40;;;;;;;;;;5053957;28;20029;-62
2023/08/08 07:43:36;;;;;;;3.97;2.70;;;;;;;;;;5053315;28;20054;-62
2023/08/08 07:46:01;;;;;;;1.77;1.67;;;;;;;;;;5035635;28;20476;-62
2023/08/08 07:48:26;;;;;;;2.60;1.42;;;;;;;;;;5035447;28;20071;-63
2023/08/08 07:50:52;;;;;;;2.00;1.25;;;;;;;;;;5056113;28;20033;-63
2023/08/08 07:53:17;;;;;;;2.35;1.88;;;;;;;;;;5057866;28;20045;-63
2023/08/08 07:55:42;;;;;;;3.33;1.60;;;;;;;;;;5057301;28;20045;-63
2023/08/08 07:58:08;;;;;;;2.15;1.95;;;;;;;;;;5057551;28;20029;-63
2023/08/08 08:00:33;;;;;;;3.17;2.60;;;;;;;;;;5057225;28;20032;-63
2023/08/08 08:02:58;;;;;;;6.20;2.97;;;;;;;;;;5056988;28;20116;-63
2023/08/08 08:05:24;;;;;;;5.00;2.83;;;;;;;;;;5057356;28;20089;-63
2023/08/08 08:07:49;;;;;;;3.00;2.22;;;;;;;;;;5057037;28;20078;-63
2023/08/08 08:10:14;;;;;;;1.60;1.33;;;;;;;;;;5057182;28;20025;-62
2023/08/08 08:12:41;;;;;;;1.85;1.20;;;;;;;;;;5056974;28;20036;-62
2023/08/08 08:15:07;;;;;;;2.05;1.38;;;;;;;;;;5056946;28;20049;-62
2023/08/08 08:17:32;;;;;;;2.33;1.23;;;;;;;;;;5057442;28;20029;-62
2023/08/08 08:19:58;;;;;;;1.65;1.40;;;;;;;;;;5056812;28;20043;-62
2023/08/08 08:22:24;;;;;;;1.30;1.20;;;;;;;;;;5057075;28;20140;-63
2023/08/08 08:24:50;;;;;;;2.63;1.88;;;;;;;;;;5057048;28;20087;-63
2023/08/08 08:27:17;;;;;;;2.83;1.67;;;;;;;;;;5056990;28;20035;-63
2023/08/08 08:29:43;;;;;;;2.75;1.70;;;;;;;;;;5039102;28;20390;-63
2023/08/08 08:32:08;;;;;;;1.38;1.27;;;;;;;;;;5056625;28;20033;-63
2023/08/08 08:34:35;;;;;;;1.58;1.13;;;;;;;;;;5056555;28;20033;-62
2023/08/08 08:37:00;;;;;;;1.33;1.20;;;;;;;;;;5039033;28;20036;-62
2023/08/08 08:39:25;;;;;;;1.85;1.20;;;;;;;;;;5038576;28;20033;-62
2023/08/08 08:41:54;;;;;;;1.73;1.30;;;;;;;;;;5076460;23;20512;-58
2023/08/08 08:44:21;;;;;;;2.08;1.05;;;;;;;;;;5069402;23;20041;-58
2023/08/08 08:46:48;;;;;;;1.73;1.40;;;;;;;;;;5056356;28;20075;-62
2023/08/08 08:49:13;;;;;;;1.55;1.27;;;;;;;;;;5056212;28;20576;-62
2023/08/08 08:51:39;;;;;;;2.78;1.35;;;;;;;;;;5056499;28;20099;-63
2023/08/08 08:54:05;;;;;;;1.23;1.13;;;;;;;;;;5056200;28;20036;-63
2023/08/08 08:56:30;;;;;;;1.10;0.82;;;;;;;;;;5056435;28;20013;-58
2023/08/08 08:58:56;;;;;;;2.33;1.17;;;;;;;;;;5038222;28;20036;-58
2023/08/08 09:01:23;;;;;;;2.65;1.33;;;;;;;;;;5054994;28;20029;-58
2023/08/08 09:03:48;;;;;;;1.77;1.08;;;;;;;;;;5038492;28;20043;-58
2023/08/08 09:06:16;;;;;;;1.33;1.10;;;;;;;;;;5056492;28;20108;-58
2023/08/08 09:08:41;;;;;;;1.02;0.95;;;;;;;;;;5055896;28;20029;-58
2023/08/08 09:11:06;;;;;;;2.70;1.30;;;;;;;;;;5055781;28;20108;-58
2023/08/08 09:13:38;;;;;;;1.23;1.13;;;;;;;;;;5055795;28;20074;-62
2023/08/08 09:16:08;;;;;;;1.45;1.30;;;;;;;;;;5056079;28;20461;-62
2023/08/08 09:18:34;;;;;;;1.90;1.08;;;;;;;;;;5056008;28;20031;-62
2023/08/08 09:20:59;;;;;;;1.17;1.08;;;;;;;;;;5055927;28;20037;-62
2023/08/08 09:23:25;;;;;;;1.67;1.05;;;;;;;;;;5055669;28;20068;-62
2023/08/08 09:25:51;;;;;;;1.85;1.00;;;;;;;;;;5056151;28;20112;-58
2023/08/08 09:28:16;;;;;;;1.40;1.30;;;;;;;;;;5055532;28;20482;-58
2023/08/08 09:30:42;;;;;;;2.92;1.30;;;;;;;;;;5055405;28;20048;-58
2023/08/08 09:33:07;;;;;;;1.02;0.93;;;;;;;;;;5055739;28;20025;-58
2023/08/08 09:35:33;;;;;;;2.65;1.13;;;;;;;;;;5055415;28;20033;-58
2023/08/08 09:37:59;;;;;;;1.08;0.98;;;;;;;;;;5055371;28;20028;-58
2023/08/08 09:40:24;;;;;;;2.63;1.30;;;;;;;;;;5055618;28;20028;-58
2023/08/08 09:42:51;;;;;;;2.05;1.38;;;;;;;;;;5055202;28;20119;-58
2023/08/08 09:45:16;;;;;;;1.48;1.17;;;;;;;;;;5037252;28;20044;-62
2023/08/08 09:47:42;;;;;;;2.33;1.20;;;;;;;;;;5055140;28;20033;-62
2023/08/08 09:50:07;;;;;;;1.17;1.08;;;;;;;;;;5037175;28;20040;-62
2023/08/08 09:52:33;;;;;;;1.45;1.10;;;;;;;;;;5055383;28;20033;-62
2023/08/08 09:54:59;;;;;;;2.35;1.80;;;;;;;;;;5055064;28;20025;-62
2023/08/08 09:57:24;;;;;;;1.73;1.63;;;;;;;;;;5055029;28;20413;-58
2023/08/08 09:59:51;;;;;;;1.80;1.20;;;;;;;;;;5054924;28;20037;-58
2023/08/08 10:02:16;;;;;;;1.30;1.20;;;;;;;;;;5055239;28;20036;-58
2023/08/08 10:04:42;;;;;;;3.00;1.23;;;;;;;;;;5054878;28;20454;-58
2023/08/08 10:07:08;;;;;;;1.58;1.38;;;;;;;;;;5055110;28;20021;-58
2023/08/08 10:09:34;;;;;;;1.42;1.33;;;;;;;;;;5054719;28;20071;-58
2023/08/08 10:11:59;;;;;;;3.70;1.02;;;;;;;;;;5054642;28;20029;-58
2023/08/08 10:14:29;;;;;;;1.30;1.20;;;;;;;;;;5054577;28;20040;-58
2023/08/08 10:16:55;;;;;;;3.35;1.65;;;;;;;;;;5054955;28;20048;-58
2023/08/08 10:19:23;;;;;;;1.85;1.45;;;;;;;;;;5054872;28;20369;-58
2023/08/08 10:21:54;;;;;;;3.30;1.95;;;;;;;;;;5036667;28;20024;-58
2023/08/08 10:24:21;;;;;;;3.53;2.28;;;;;;;;;;5037022;28;20037;-58
2023/08/08 10:26:53;;;;;;;3.92;2.10;;;;;;;;;;5054714;28;20025;-58
2023/08/08 10:29:19;;;;;;;4.50;2.70;;;;;;;;;;5054574;28;20421;-58
2023/08/08 10:31:51;;;;;;;2.90;2.58;;;;;;;;;;5054642;28;20024;-58
2023/08/08 10:34:20;;;;;;;3.92;3.30;;;;;;;;;;5036556;28;20484;-58
2023/08/08 10:36:49;;;;;;;4.28;3.03;;;;;;;;;;5054274;28;20490;-58
2023/08/08 10:39:16;;;;;;;4.40;3.00;;;;;;;;;;5054258;28;20032;-58
2023/08/08 10:41:46;;;;;;;5.38;3.10;;;;;;;;;;5036716;28;20021;-58
2023/08/08 10:44:11;;;;;;;5.37;3.37;;;;;;;;;;5054324;28;20057;-58
2023/08/08 10:46:40;;;;;;;4.07;2.60;;;;;;;;;;5054059;28;20657;-58
2023/08/08 10:49:05;;;;;;;4.05;2.53;;;;;;;;;;5054289;28;20016;-58
2023/08/08 10:51:38;;;;;;;4.00;2.50;;;;;;;;;;5053977;28;20431;-58
2023/08/08 10:54:11;;;;;;;2.22;2.05;;;;;;;;;;5054201;28;20053;-62
2023/08/08 10:56:37;;;;;;;2.75;2.47;;;;;;;;;;5054200;28;20044;-62
2023/08/08 10:59:12;;;;;;;4.88;2.45;;;;;;;;;;5054151;28;20025;-62
2023/08/08 11:01:38;;;;;;;2.78;2.38;;;;;;;;;;5036143;28;20057;-62
2023/08/08 11:04:05;;;;;;;2.78;1.77;;;;;;;;;;5054120;28;20496;-62
2023/08/08 11:06:32;;;;;;;2.30;1.73;;;;;;;;;;5053809;28;20083;-62
2023/08/08 11:08:58;;;;;;;1.60;1.50;;;;;;;;;;5054307;28;20036;-62
2023/08/08 11:11:23;;;;;;;1.45;1.35;;;;;;;;;;5053951;28;20352;-62
2023/08/08 11:13:51;;;;;;;1.50;1.40;;;;;;;;;;5053699;28;20405;-62
2023/08/08 11:16:16;;;;;;;2.10;1.80;;;;;;;;;;5053942;28;20074;-62
2023/08/08 11:18:42;;;;;;;4.47;1.83;;;;;;;;;;5053865;28;20373;-62
2023/08/08 11:21:11;;;;;;;3.60;1.90;;;;;;;;;;5053579;28;20037;-63
2023/08/08 11:23:38;;;;;;;5.28;2.70;;;;;;;;;;5053463;28;20048;-62
2023/08/08 11:26:04;;;;;;;2.22;1.30;;;;;;;;;;5035023;28;20398;-63
2023/08/08 11:28:29;;;;;;;1.40;1.30;;;;;;;;;;5053495;28;20025;-62
2023/08/08 11:30:55;;;;;;;1.52;1.38;;;;;;;;;;5053698;28;20025;-62
2023/08/08 11:33:20;;;;;;;3.78;2.78;;;;;;;;;;5035637;28;20033;-62
2023/08/08 11:35:48;;;;;;;3.63;3.05;;;;;;;;;;5053428;28;20416;-62
2023/08/08 11:38:14;;;;;;;2.45;1.85;;;;;;;;;;5053788;28;20018;-62
2023/08/08 11:40:39;;;;;;;2.97;2.38;;;;;;;;;;5053732;28;20091;-62
2023/08/08 11:43:05;;;;;;;3.55;3.25;;;;;;;;;;5053383;28;20109;-62
2023/08/08 11:45:31;;;;;;;3.72;3.35;;;;;;;;;;5035497;28;20049;-63
2023/08/08 11:47:57;;;;;;;3.90;3.30;;;;;;;;;;5053581;28;20032;-63
2023/08/08 11:50:24;;;;;;;3.45;2.67;;;;;;;;;;5054108;28;20033;-63
2023/08/08 11:52:50;;;;;;;2.92;2.47;;;;;;;;;;5053863;28;20033;-63
2023/08/08 11:55:16;;;;;;;2.67;2.47;;;;;;;;;;5053586;28;20033;-63
2023/08/08 11:57:41;;;;;;;2.55;1.85;;;;;;;;;;5053300;28;20056;-63
2023/08/08 12:00:08;;;;;;;2.92;2.42;;;;;;;;;;5053203;28;20057;-62
2023/08/08 12:02:39;;;;;;;3.38;2.38;;;;;;;;;;5053231;28;20502;-62
2023/08/08 12:05:09;;;;;;;5.22;2.97;;;;;;;;;;5053223;28;20428;-63
2023/08/08 12:07:35;;;;;;;2.90;2.63;;;;;;;;;;5053786;28;20028;-63
2023/08/08 12:10:01;;;;;;;5.90;3.88;;;;;;;;;;5035217;28;20287;-63
2023/08/08 12:12:27;;;;;;;6.80;3.28;;;;;;;;;;5053119;28;20485;-63
2023/08/08 12:14:53;;;;;;;4.25;3.35;;;;;;;;;;5035276;28;20079;-63
2023/08/08 12:17:20;;;;;;;3.33;2.40;;;;;;;;;;5053089;28;20025;-63
2023/08/08 12:19:47;;;;;;;3.13;2.30;;;;;;;;;;5053326;28;20048;-63
2023/08/08 12:22:12;;;;;;;1.73;1.45;;;;;;;;;;5053037;28;20028;-63
2023/08/08 12:24:37;;;;;;;1.40;1.27;;;;;;;;;;5035263;28;20125;-63
2023/08/08 12:27:03;;;;;;;2.22;1.50;;;;;;;;;;5053306;28;20029;-63
2023/08/08 12:29:28;;;;;;;1.77;1.60;;;;;;;;;;5053121;28;20037;-63
2023/08/08 12:31:54;;;;;;;1.67;1.58;;;;;;;;;;5035133;28;20025;-58
2023/08/08 12:34:19;;;;;;;1.70;1.60;;;;;;;;;;5052879;28;20490;-58
2023/08/08 12:36:44;;;;;;;2.92;1.85;;;;;;;;;;5055056;28;20024;-58
2023/08/08 12:39:10;;;;;;;1.70;1.58;;;;;;;;;;5056773;28;20017;-58
2023/08/08 12:41:36;;;;;;;1.35;1.25;;;;;;;;;;5056431;28;20401;-58
2023/08/08 12:44:02;;;;;;;3.38;1.38;;;;;;;;;;5056232;28;20041;-58
2023/08/08 12:46:28;;;;;;;1.85;1.70;;;;;;;;;;5056329;28;20036;-58
2023/08/08 12:48:54;;;;;;;2.05;1.40;;;;;;;;;;5056307;28;20100;-58
2023/08/08 12:51:19;;;;;;;3.55;1.50;;;;;;;;;;5056144;28;20025;-58
2023/08/08 12:53:44;;;;;;;1.15;1.05;;;;;;;;;;5056736;28;20075;-58
2023/08/08 12:56:10;;;;;;;1.38;0.98;;;;;;;;;;5056139;28;20360;-58
2023/08/08 12:58:35;;;;;;;2.50;1.33;;;;;;;;;;5038226;28;20029;-58
2023/08/08 13:01:01;;;;;;;2.88;1.00;;;;;;;;;;5056087;28;20417;-58
2023/08/08 13:03:26;;;;;;;1.27;1.17;;;;;;;;;;5056280;28;20029;-58
2023/08/08 13:05:52;;;;;;;1.50;1.40;;;;;;;;;;5055964;28;20090;-58
2023/08/08 13:08:19;;;;;;;0.68;0.68;;;;;;;;;;5056220;28;20064;-58
2023/08/08 13:10:45;;;;;;;1.15;1.05;;;;;;;;;;5056331;28;20112;-58
2023/08/08 13:13:10;;;;;;;1.02;1.02;;;;;;;;;;5055881;28;20017;-58
2023/08/08 13:15:36;;;;;;;1.95;1.20;;;;;;;;;;5055794;28;20029;-58
2023/08/08 13:18:01;;;;;;;1.10;1.00;;;;;;;;;;5056095;28;20029;-62
2023/08/08 13:20:34;;;;;;;1.23;1.20;;;;;;;;;;5089048;23;20434;-62
2023/08/08 13:22:59;;;;;;;1.25;1.15;;;;;;;;;;5074922;22;20046;-58
2023/08/08 13:25:25;;;;;;;1.67;1.25;;;;;;;;;;5055634;28;20450;-62
2023/08/08 13:28:02;;;;;;;1.30;1.20;;;;;;;;;;5055491;28;20037;-62
2023/08/08 13:30:28;;;;;;;1.60;1.50;;;;;;;;;;5055780;28;20454;-63
2023/08/08 13:32:54;;;;;;;1.45;1.35;;;;;;;;;;5055447;28;20036;-58
2023/08/08 13:35:19;;;;;;;2.28;1.13;;;;;;;;;;5055436;28;20056;-58
2023/08/08 13:37:49;;;;;;;1.42;1.30;;;;;;;;;;5038213;28;20099;-58
2023/08/08 13:40:14;;;;;;;4.15;1.80;;;;;;;;;;5055393;28;20083;-58
2023/08/08 13:42:40;;;;;;;1.73;1.60;;;;;;;;;;5055338;28;20421;-58
2023/08/08 13:45:05;;;;;;;1.90;1.33;;;;;;;;;;5055810;28;20036;-58
2023/08/08 13:47:31;;;;;;;3.20;1.40;;;;;;;;;;5054402;28;20024;-58
2023/08/08 13:49:57;;;;;;;1.30;0.95;;;;;;;;;;5055133;28;20119;-58
2023/08/08 13:52:23;;;;;;;1.95;1.10;;;;;;;;;;5055373;28;20025;-58
2023/08/08 13:54:48;;;;;;;2.63;1.00;;;;;;;;;;5055117;28;20143;-58
2023/08/08 13:57:13;;;;;;;1.40;1.15;;;;;;;;;;5055288;28;20029;-58
2023/08/08 13:59:38;;;;;;;3.00;1.10;;;;;;;;;;5055552;28;20438;-58
2023/08/08 14:02:04;;;;;;;1.35;0.85;;;;;;;;;;5055167;28;20029;-58
2023/08/08 14:04:30;;;;;;;0.85;0.85;;;;;;;;;;5055094;28;20075;-63
2023/08/08 14:06:55;;;;;;;2.17;0.95;;;;;;;;;;5055120;28;20033;-63
2023/08/08 14:09:21;;;;;;;1.17;0.90;;;;;;;;;;5055284;28;20029;-63
2023/08/08 14:11:46;;;;;;;1.33;0.85;;;;;;;;;;5036883;28;20071;-63
2023/08/08 14:14:11;;;;;;;1.58;1.08;;;;;;;;;;5055253;28;20043;-63
2023/08/08 14:16:37;;;;;;;1.33;1.20;;;;;;;;;;5055223;28;20053;-63
2023/08/08 14:19:02;;;;;;;1.20;0.82;;;;;;;;;;5054603;28;20029;-63
2023/08/08 14:21:27;;;;;;;0.80;0.80;;;;;;;;;;5020193;28;20082;-63
2023/08/08 14:23:53;;;;;;;1.70;1.00;;;;;;;;;;5052022;28;20025;-62
2023/08/08 14:26:19;;;;;;;0.95;0.80;;;;;;;;;;5044641;28;20134;-62
2023/08/08 14:28:45;;;;;;;1.90;1.00;;;;;;;;;;5054755;28;20033;-62
2023/08/08 14:31:10;;;;;;;2.67;1.10;;;;;;;;;;5048429;28;20041;-62
2023/08/08 14:33:36;;;;;;;1.00;1.00;;;;;;;;;;5049476;28;20191;-57
2023/08/08 14:36:02;;;;;;;2.25;1.10;;;;;;;;;;5052168;28;20340;-58
2023/08/08 14:38:27;;;;;;;0.57;0.57;;;;;;;;;;5050297;28;20017;-57